Time;durP1;ratioP1;P1;durP2;ratioP2;P2;SDS_P1;SDS_P2;PMS_P1;PMS_P2;Temp;Humidity;BMP_temperature;BMP_pressure;BME280_temperature;BME280_humidity;BME280_pressure;Samples;Min_cycle;Max_cycle;Signal;HPM_P1;HPM_P2
2022/07/26 00:00:54;;;;;;;282.67;267.85;;;;;;;23.14;52.05;96576.59;5053367;28;20244;-66
2022/07/26 00:03:20;;;;;;;361.83;342.23;;;;;;;23.14;52.00;96582.72;5052923;28;20210;-66
2022/07/26 00:05:45;;;;;;;417.30;394.25;;;;;;;23.11;52.76;96580.69;5053082;28;20190;-67
2022/07/26 00:08:11;;;;;;;455.45;429.88;;;;;;;23.26;52.25;96573.31;5052788;28;20231;-67
2022/07/26 00:10:47;;;;;;;485.33;457.85;;;;;;;23.24;52.28;96572.84;5053090;28;20223;-67
2022/07/26 00:13:13;;;;;;;489.67;461.48;;;;;;;23.27;52.68;96591.72;5053009;28;20189;-66
2022/07/26 00:15:38;;;;;;;464.40;437.83;;;;;;;23.26;52.68;96594.72;5053425;28;20638;-66
2022/07/26 00:18:04;;;;;;;450.20;424.08;;;;;;;23.28;52.56;96603.22;5052621;28;20190;-68
2022/07/26 00:20:30;;;;;;;408.02;384.48;;;;;;;23.32;52.18;96594.25;5053464;28;20251;-67
2022/07/26 00:22:55;;;;;;;340.80;321.70;;;;;;;23.27;52.54;96598.97;5053194;28;20608;-66
2022/07/26 00:25:21;;;;;;;287.05;271.17;;;;;;;23.11;52.96;96594.06;5051797;28;20190;-67
2022/07/26 00:27:46;;;;;;;202.25;191.38;;;;;;;23.15;53.18;96594.22;5052605;28;20182;-67
2022/07/26 00:30:12;;;;;;;115.63;109.38;;;;;;;23.21;53.23;96591.09;5052954;28;20189;-67
2022/07/26 00:32:37;;;;;;;116.97;110.43;;;;;;;23.44;52.53;96596.31;5053299;28;20221;-67
2022/07/26 00:35:04;;;;;;;125.88;119.25;;;;;;;23.47;52.56;96588.47;5052856;28;20189;-67
2022/07/26 00:37:29;;;;;;;129.75;122.95;;;;;;;23.51;52.67;96591.31;5052727;28;20671;-67
2022/07/26 00:39:55;;;;;;;170.20;161.00;;;;;;;23.23;53.41;96593.47;5052692;28;20251;-67
2022/07/26 00:42:20;;;;;;;188.75;178.70;;;;;;;23.29;53.10;96596.78;5051091;28;20303;-67
2022/07/26 00:44:46;;;;;;;228.48;216.35;;;;;;;23.28;53.29;96593.31;5052691;28;20190;-67
2022/07/26 00:47:12;;;;;;;217.27;205.50;;;;;;;23.32;53.24;96588.13;5052708;28;20186;-67
2022/07/26 00:49:38;;;;;;;169.20;160.38;;;;;;;23.25;53.68;96590.44;5051712;28;20193;-67
2022/07/26 00:52:04;;;;;;;164.32;155.82;;;;;;;23.10;53.69;96581.78;5052706;28;20182;-70
2022/07/26 00:54:30;;;;;;;174.93;165.88;;;;;;;22.99;54.39;96587.72;5052856;28;20257;-67
2022/07/26 00:56:55;;;;;;;176.82;167.75;;;;;;;23.25;53.92;96598.47;5052426;28;20269;-67
2022/07/26 00:59:21;;;;;;;121.82;115.45;;;;;;;23.16;54.43;96601.16;5052382;28;20547;-67
2022/07/26 01:01:47;;;;;;;68.60;65.03;;;;;;;22.98;55.41;96597.63;5052394;28;20188;-67
2022/07/26 01:04:12;;;;;;;44.97;42.65;;;;;;;23.10;55.00;96594.38;5052427;28;20574;-67
2022/07/26 01:06:38;;;;;;;33.97;31.90;;;;;;;23.19;54.73;96598.63;5051613;28;20609;-67
2022/07/26 01:09:04;;;;;;;27.27;25.65;;;;;;;23.21;55.09;96609.03;5052799;28;20186;-67
2022/07/26 01:11:30;;;;;;;28.58;26.65;;;;;;;23.10;55.29;96611.19;5052246;28;20186;-67
2022/07/26 01:13:55;;;;;;;46.25;43.67;;;;;;;23.01;56.23;96606.94;5052334;28;20661;-67
2022/07/26 01:16:21;;;;;;;69.65;66.05;;;;;;;22.78;57.14;96599.00;5055027;28;20185;-67
2022/07/26 01:18:46;;;;;;;147.77;140.38;;;;;;;22.96;56.39;96596.38;5056413;28;20469;-67
2022/07/26 01:21:12;;;;;;;318.27;302.27;;;;;;;22.90;56.93;96606.44;5056304;28;20189;-67
2022/07/26 01:23:37;;;;;;;455.08;430.90;;;;;;;22.68;57.95;96598.47;5056303;28;20233;-67
2022/07/26 01:26:04;;;;;;;430.45;407.02;;;;;;;22.47;59.64;96606.19;5056491;28;20692;-67
2022/07/26 01:28:29;;;;;;;74.57;69.88;;;;;;;22.00;62.22;96598.88;5057044;28;20186;-66
2022/07/26 01:30:55;;;;;;;67.30;63.60;;;;;;;21.65;64.83;96603.13;5056302;28;20189;-67
2022/07/26 01:33:21;;;;;;;150.35;142.68;;;;;;;21.19;67.97;96608.63;5055567;28;20565;-66
2022/07/26 01:35:46;;;;;;;143.15;135.75;;;;;;;21.06;69.31;96619.00;5055698;28;20253;-66
2022/07/26 01:38:12;;;;;;;228.15;214.73;;;;;;;20.60;73.01;96618.31;5056267;28;20228;-67
2022/07/26 01:40:37;;;;;;;198.85;188.48;;;;;;;20.52;74.75;96613.63;5055939;28;20189;-66
2022/07/26 01:43:03;;;;;;;201.45;190.82;;;;;;;20.53;75.79;96616.00;5056423;28;20324;-67
2022/07/26 01:45:28;;;;;;;112.32;106.18;;;;;;;20.49;76.89;96620.34;5055156;28;20654;-67
2022/07/26 01:47:54;;;;;;;37.45;35.25;;;;;;;20.22;79.38;96623.72;5054979;28;20186;-67
2022/07/26 01:50:19;;;;;;;113.70;107.57;;;;;;;20.44;78.44;96620.44;5054849;28;20547;-67
2022/07/26 01:52:45;;;;;;;255.43;241.98;;;;;;;20.78;76.72;96613.97;5056188;28;20201;-67
2022/07/26 01:55:10;;;;;;;264.80;250.82;;;;;;;20.95;75.94;96612.31;5054943;28;20178;-67
2022/07/26 01:57:35;;;;;;;170.48;161.50;;;;;;;20.91;76.13;96611.28;5055527;28;20193;-67
2022/07/26 02:00:04;;;;;;;140.43;133.05;;;;;;;20.92;76.20;96618.22;5056065;28;20178;-66
2022/07/26 02:02:29;;;;;;;76.70;72.57;;;;;;;21.18;74.47;96617.75;5055737;28;20251;-68
2022/07/26 02:04:57;;;;;;;88.45;83.93;;;;;;;21.15;74.10;96608.47;5055599;28;20174;-67
2022/07/26 02:07:23;;;;;;;171.85;162.73;;;;;;;21.02;73.55;96598.56;5054520;28;20188;-67
2022/07/26 02:09:48;;;;;;;143.07;135.63;;;;;;;21.07;72.89;96596.56;5053922;28;20549;-67
2022/07/26 02:12:14;;;;;;;82.00;77.72;;;;;;;21.12;72.55;96603.72;5055406;28;20182;-67
2022/07/26 02:14:39;;;;;;;66.35;62.78;;;;;;;21.26;71.75;96603.69;5055521;28;20221;-67
2022/07/26 02:17:05;;;;;;;68.78;65.15;;;;;;;21.09;72.54;96610.41;5055098;28;20193;-67
2022/07/26 02:19:30;;;;;;;87.68;82.88;;;;;;;21.27;71.79;96600.75;5054756;28;20186;-67
2022/07/26 02:21:57;;;;;;;195.25;184.98;;;;;;;21.29;70.77;96601.22;5055838;28;20276;-67
2022/07/26 02:24:23;;;;;;;404.55;381.88;;;;;;;21.41;70.07;96604.16;5054524;28;20186;-68
2022/07/26 02:26:48;;;;;;;722.92;675.55;;;;;;;21.37;69.76;96597.06;5054012;28;20693;-68
2022/07/26 02:29:14;;;;;;;771.88;720.67;;;;;;;21.51;69.11;96597.84;5055241;28;20269;-68
2022/07/26 02:31:39;;;;;;;751.00;701.50;;;;;;;21.63;67.99;96590.06;5054960;28;20188;-68
2022/07/26 02:34:04;;;;;;;682.35;638.25;;;;;;;21.51;68.08;96589.84;5054545;28;20189;-68
2022/07/26 02:36:30;;;;;;;667.05;624.85;;;;;;;21.53;67.97;96592.97;5054806;28;20643;-68
2022/07/26 02:38:55;;;;;;;575.88;540.60;;;;;;;21.53;68.56;96587.63;5054864;28;20220;-68
2022/07/26 02:41:21;;;;;;;535.72;504.45;;;;;;;21.50;68.41;96591.72;5054759;28;20221;-68
2022/07/26 02:43:46;;;;;;;612.17;576.00;;;;;;;21.51;68.42;96592.50;5055144;28;20194;-68
2022/07/26 02:46:11;;;;;;;618.40;581.97;;;;;;;21.62;67.75;96585.84;5054201;28;20251;-68
2022/07/26 02:48:37;;;;;;;632.63;595.05;;;;;;;21.65;67.57;96598.56;5053934;28;20209;-68
2022/07/26 02:51:02;;;;;;;635.90;597.92;;;;;;;21.70;67.72;96593.13;5055104;28;20217;-67
2022/07/26 02:53:28;;;;;;;621.75;584.42;;;;;;;21.65;67.86;96593.22;5054394;28;20554;-68
2022/07/26 02:55:53;;;;;;;592.28;557.45;;;;;;;21.50;68.45;96596.25;5055063;28;20178;-67
2022/07/26 02:58:23;;;;;;;557.58;525.40;;;;;;;21.56;68.24;96584.38;5054363;28;20182;-67
2022/07/26 03:00:49;;;;;;;508.13;478.38;;;;;;;21.53;68.27;96580.44;5054828;28;20327;-66
2022/07/26 03:03:14;;;;;;;513.78;483.85;;;;;;;21.66;67.83;96588.69;5054689;28;20718;-66
2022/07/26 03:05:40;;;;;;;498.70;470.10;;;;;;;21.61;68.17;96581.59;5054949;28;20189;-67
2022/07/26 03:08:06;;;;;;;515.92;486.15;;;;;;;21.62;67.85;96583.19;5054403;28;20186;-68
2022/07/26 03:10:32;;;;;;;527.08;496.55;;;;;;;21.61;68.18;96583.47;5038344;28;20236;-66
2022/07/26 03:12:57;;;;;;;519.70;489.75;;;;;;;21.67;67.54;96583.06;5054628;28;20197;-67
2022/07/26 03:15:23;;;;;;;509.98;480.27;;;;;;;21.53;68.15;96583.09;5053071;28;20189;-67
2022/07/26 03:17:48;;;;;;;511.15;481.75;;;;;;;21.55;68.21;96578.25;5054058;28;20569;-67
2022/07/26 03:20:14;;;;;;;521.90;491.83;;;;;;;21.55;67.85;96582.81;5054202;28;20186;-67
2022/07/26 03:22:40;;;;;;;577.65;543.75;;;;;;;21.69;67.54;96588.88;5054318;28;20226;-66
2022/07/26 03:25:06;;;;;;;561.28;528.35;;;;;;;21.46;67.94;96590.72;5054078;28;20182;-66
2022/07/26 03:27:31;;;;;;;544.03;512.35;;;;;;;21.48;68.49;96596.53;5058766;28;20197;-67
2022/07/26 03:29:56;;;;;;;532.67;501.80;;;;;;;21.53;67.88;96593.75;5054081;28;20221;-67
2022/07/26 03:32:22;;;;;;;507.70;478.00;;;;;;;21.52;68.09;96592.19;5054182;28;20186;-67
2022/07/26 03:34:47;;;;;;;476.50;448.58;;;;;;;21.51;68.15;96597.84;5053758;28;20197;-67
2022/07/26 03:37:13;;;;;;;535.50;503.17;;;;;;;21.37;68.65;96595.19;5053974;28;20647;-67
2022/07/26 03:39:39;;;;;;;641.38;601.10;;;;;;;21.36;68.80;96587.47;5054196;28;20186;-67
2022/07/26 03:42:05;;;;;;;716.60;669.55;;;;;;;21.38;68.80;96588.78;5053480;28;20230;-67
2022/07/26 03:44:30;;;;;;;821.58;765.38;;;;;;;21.40;68.64;96591.91;5052218;28;20650;-66
2022/07/26 03:46:56;;;;;;;816.42;760.13;;;;;;;21.24;69.48;96596.00;5053081;28;20662;-67
2022/07/26 03:49:21;;;;;;;839.15;780.08;;;;;;;21.20;69.38;96588.91;5052447;28;20189;-67
2022/07/26 03:51:46;;;;;;;760.20;709.45;;;;;;;21.24;69.30;96596.00;5053778;28;20197;-67
2022/07/26 03:54:12;;;;;;;711.70;665.50;;;;;;;21.15;69.85;96595.94;5053367;28;20659;-67
2022/07/26 03:56:39;;;;;;;570.50;536.75;;;;;;;20.95;70.77;96601.66;5053900;28;20193;-67
2022/07/26 03:59:07;;;;;;;409.85;386.48;;;;;;;21.07;70.15;96593.91;5053582;28;20255;-67
2022/07/26 04:01:38;;;;;;;238.05;225.77;;;;;;;20.92;71.06;96598.75;5053882;28;20263;-67
2022/07/26 04:04:04;;;;;;;181.05;171.57;;;;;;;20.81;71.38;96602.72;5053403;28;20216;-68
2022/07/26 04:06:29;;;;;;;149.88;141.93;;;;;;;20.92;70.89;96602.22;5053565;28;20732;-67
2022/07/26 04:08:54;;;;;;;123.03;116.55;;;;;;;20.78;71.35;96606.78;5053136;28;20235;-67
2022/07/26 04:11:20;;;;;;;105.18;99.65;;;;;;;20.67;72.10;96610.72;5052726;28;20186;-67
2022/07/26 04:13:45;;;;;;;100.38;94.97;;;;;;;20.79;71.72;96610.22;5053139;28;20200;-66
2022/07/26 04:16:11;;;;;;;92.82;88.03;;;;;;;20.42;73.60;96608.50;5052602;28;20190;-67
2022/07/26 04:18:36;;;;;;;89.18;84.10;;;;;;;20.67;72.76;96613.38;5053319;28;20178;-67
2022/07/26 04:21:02;;;;;;;84.38;80.07;;;;;;;20.44;73.48;96609.00;5051988;28;20182;-67
2022/07/26 04:23:27;;;;;;;99.45;94.32;;;;;;;20.41;74.15;96609.56;5052931;28;20210;-67
2022/07/26 04:25:53;;;;;;;90.68;85.95;;;;;;;20.58;72.93;96609.81;5052821;28;20183;-67
2022/07/26 04:28:18;;;;;;;113.03;107.20;;;;;;;20.71;72.61;96607.16;5052948;28;20182;-67
2022/07/26 04:30:44;;;;;;;102.45;97.07;;;;;;;20.93;71.45;96611.00;5052955;28;20209;-67
2022/07/26 04:33:09;;;;;;;108.22;102.65;;;;;;;20.78;71.92;96606.78;5051562;28;20200;-68
2022/07/26 04:35:35;;;;;;;133.65;126.65;;;;;;;20.75;72.24;96618.81;5052789;28;20661;-67
2022/07/26 04:38:01;;;;;;;132.38;125.45;;;;;;;20.70;72.49;96613.56;5053116;28;20182;-67
2022/07/26 04:40:27;;;;;;;126.60;120.07;;;;;;;20.68;72.32;96618.38;5053030;28;20608;-67
2022/07/26 04:42:53;;;;;;;131.43;124.43;;;;;;;20.78;71.99;96619.31;5051413;28;20324;-67
2022/07/26 04:45:19;;;;;;;131.20;124.32;;;;;;;20.78;71.89;96622.75;5052261;28;20262;-67
2022/07/26 04:47:48;;;;;;;137.20;129.85;;;;;;;20.81;71.88;96613.38;5051814;28;20194;-68
2022/07/26 04:50:14;;;;;;;126.15;119.32;;;;;;;20.85;71.53;96617.00;5052422;28;20181;-67
2022/07/26 04:52:39;;;;;;;144.73;136.98;;;;;;;21.06;70.81;96620.88;5052710;28;20602;-67
2022/07/26 04:55:06;;;;;;;177.50;167.93;;;;;;;21.14;70.24;96615.66;5052466;28;20180;-67
2022/07/26 04:57:31;;;;;;;262.30;248.30;;;;;;;21.15;70.00;96622.56;5052872;28;20201;-67
2022/07/26 04:59:57;;;;;;;338.35;319.63;;;;;;;20.97;70.59;96625.31;5051705;28;20580;-66
2022/07/26 05:02:22;;;;;;;435.42;410.17;;;;;;;21.08;70.51;96634.69;5052462;28;20235;-66
2022/07/26 05:04:47;;;;;;;759.90;705.05;;;;;;;21.26;69.35;96638.34;5052269;28;20189;-66
2022/07/26 05:07:13;;;;;;;830.78;769.67;;;;;;;21.23;69.64;96641.63;5052612;28;20194;-66
2022/07/26 05:09:39;;;;;;;845.65;784.03;;;;;;;21.09;70.06;96637.06;5052483;28;20190;-66
2022/07/26 05:12:04;;;;;;;860.53;796.92;;;;;;;21.13;69.87;96631.91;5052537;28;20196;-68
2022/07/26 05:14:30;;;;;;;852.83;790.55;;;;;;;21.30;69.30;96642.78;5052611;28;20182;-66
2022/07/26 05:16:55;;;;;;;794.92;738.80;;;;;;;21.52;68.35;96632.19;5052860;28;20189;-66
2022/07/26 05:19:21;;;;;;;674.58;630.55;;;;;;;21.72;67.83;96636.31;5052615;28;20635;-66
2022/07/26 05:21:46;;;;;;;673.88;631.78;;;;;;;21.83;67.35;96634.19;5052906;28;20189;-67
2022/07/26 05:24:11;;;;;;;399.30;376.23;;;;;;;21.84;67.32;96641.91;5052102;28;20201;-67
2022/07/26 05:26:37;;;;;;;226.05;213.30;;;;;;;22.11;66.40;96645.56;5057972;28;20190;-67
2022/07/26 05:29:02;;;;;;;181.57;171.82;;;;;;;22.10;65.67;96639.44;5052756;28;20257;-67
2022/07/26 05:31:28;;;;;;;167.27;158.32;;;;;;;22.39;65.28;96642.47;5052544;28;20178;-67
2022/07/26 05:33:54;;;;;;;128.55;121.68;;;;;;;22.69;63.84;96645.44;5052279;28;20186;-67
2022/07/26 05:36:20;;;;;;;96.05;90.75;;;;;;;22.77;63.42;96645.53;5052414;28;20190;-67
2022/07/26 05:38:45;;;;;;;76.20;72.13;;;;;;;22.70;63.27;96652.38;5052599;28;20178;-66
2022/07/26 05:41:10;;;;;;;69.78;65.95;;;;;;;22.59;63.74;96640.38;5052270;28;20585;-66
2022/07/26 05:43:36;;;;;;;70.30;66.63;;;;;;;22.97;62.58;96640.72;5052139;28;20293;-66
2022/07/26 05:46:02;;;;;;;70.28;66.47;;;;;;;22.82;63.12;96651.81;5051689;28;20658;-66
2022/07/26 05:48:27;;;;;;;65.78;62.33;;;;;;;23.32;61.42;96646.97;5051099;28;20665;-67
2022/07/26 05:50:52;;;;;;;47.05;43.90;;;;;;;23.42;61.04;96652.00;5052392;28;20645;-66
2022/07/26 05:53:18;;;;;;;45.75;42.95;;;;;;;23.06;62.19;96638.88;5052408;28;20178;-66
2022/07/26 05:55:44;;;;;;;46.28;43.78;;;;;;;22.90;62.80;96643.06;5052329;28;20178;-66
2022/07/26 05:58:09;;;;;;;44.20;41.75;;;;;;;22.50;64.42;96647.56;5052151;28;20178;-66
2022/07/26 06:00:35;;;;;;;66.97;63.35;;;;;;;22.18;65.35;96644.03;5050872;28;20223;-67
2022/07/26 06:03:20;;;;;;;116.20;110.40;;;;;;;21.80;66.20;96642.78;5054833;28;20202;-67
2022/07/26 06:05:45;;;;;;;52.17;49.38;;;;;;;22.38;65.38;96645.44;5055154;28;20186;-67
2022/07/26 06:08:11;;;;;;;103.13;97.65;;;;;;;22.73;63.16;96641.91;5055184;28;20181;-67
2022/07/26 06:10:36;;;;;;;67.57;64.05;;;;;;;23.16;61.73;96650.06;5054001;28;20269;-67
2022/07/26 06:13:02;;;;;;;47.97;45.10;;;;;;;23.69;60.03;96646.41;5054510;28;20236;-66
2022/07/26 06:15:27;;;;;;;73.60;69.55;;;;;;;23.58;59.32;96651.28;5053949;28;20649;-66
2022/07/26 06:17:52;;;;;;;102.00;96.55;;;;;;;23.45;60.27;96657.53;5055689;28;20188;-66
2022/07/26 06:20:18;;;;;;;149.38;141.35;;;;;;;23.61;59.57;96660.59;5056088;28;20185;-66
2022/07/26 06:22:43;;;;;;;208.48;197.55;;;;;;;23.31;59.04;96654.19;5055741;28;20646;-66
2022/07/26 06:25:08;;;;;;;253.85;240.05;;;;;;;22.17;61.07;96653.16;5055342;28;20209;-66
2022/07/26 06:27:34;;;;;;;132.35;125.25;;;;;;;22.19;60.50;96648.28;5055768;28;20182;-67
2022/07/26 06:29:59;;;;;;;43.63;41.30;;;;;;;21.75;60.86;96646.34;5055361;28;20174;-68
2022/07/26 06:32:24;;;;;;;43.17;40.92;;;;;;;22.28;59.57;96659.84;5055525;28;20182;-67
2022/07/26 06:34:50;;;;;;;67.80;64.25;;;;;;;22.04;58.57;96647.88;5055302;28;20180;-66
2022/07/26 06:37:15;;;;;;;64.55;61.00;;;;;;;22.37;57.80;96649.19;5055357;28;20205;-66
2022/07/26 06:39:41;;;;;;;120.65;114.50;;;;;;;22.64;56.17;96650.91;5055940;28;20178;-66
2022/07/26 06:42:06;;;;;;;79.82;75.15;;;;;;;23.00;53.73;96656.16;5054804;28;20226;-67
2022/07/26 06:44:31;;;;;;;70.43;66.80;;;;;;;23.04;53.95;96649.09;5054908;28;20276;-66
2022/07/26 06:46:57;;;;;;;65.05;61.40;;;;;;;23.68;52.63;96654.78;5052694;28;20194;-66
2022/07/26 06:49:22;;;;;;;107.53;101.85;;;;;;;23.83;50.96;96655.09;5055305;28;20174;-67
2022/07/26 06:51:47;;;;;;;326.27;307.65;;;;;;;23.56;50.70;96658.84;5055416;28;20197;-67
2022/07/26 06:54:13;;;;;;;486.63;456.58;;;;;;;23.93;49.99;96656.66;5054868;28;20623;-66
2022/07/26 06:56:38;;;;;;;517.15;486.63;;;;;;;24.59;47.85;96654.56;5055107;28;20591;-67
2022/07/26 06:59:03;;;;;;;775.83;721.70;;;;;;;24.64;47.92;96660.53;5055157;28;20182;-65
2022/07/26 07:01:29;;;;;;;825.13;767.83;;;;;;;24.69;47.72;96659.56;5054876;28;20178;-64
2022/07/26 07:03:54;;;;;;;834.92;778.55;;;;;;;24.43;47.68;96662.31;5054619;28;20206;-66
2022/07/26 07:06:19;;;;;;;813.03;760.10;;;;;;;24.26;47.90;96665.03;5054543;28;20209;-65
2022/07/26 07:08:48;;;;;;;677.63;634.40;;;;;;;24.48;47.15;96664.84;5055011;28;20186;-65
2022/07/26 07:11:13;;;;;;;491.70;461.13;;;;;;;24.86;45.86;96662.19;5054819;28;20197;-65
2022/07/26 07:13:38;;;;;;;474.20;447.52;;;;;;;24.30;46.80;96661.41;5054461;28;20186;-65
2022/07/26 07:16:04;;;;;;;383.83;363.45;;;;;;;24.01;45.70;96662.03;5054851;28;20182;-66
2022/07/26 07:18:30;;;;;;;369.05;350.35;;;;;;;23.95;46.22;96667.88;5053103;28;20177;-65
2022/07/26 07:20:55;;;;;;;395.50;374.65;;;;;;;24.58;44.97;96663.72;5053214;28;20178;-65
2022/07/26 07:23:22;;;;;;;311.33;296.10;;;;;;;23.59;46.18;96668.94;5053042;28;20194;-65
2022/07/26 07:25:48;;;;;;;306.02;290.73;;;;;;;24.42;45.05;96666.91;5054592;28;20186;-64
2022/07/26 07:28:13;;;;;;;266.63;253.35;;;;;;;25.09;43.76;96658.19;5054411;28;20596;-65
2022/07/26 07:30:38;;;;;;;295.77;281.52;;;;;;;25.25;43.05;96655.75;5054223;28;20183;-65
2022/07/26 07:33:04;;;;;;;373.52;354.17;;;;;;;25.07;42.49;96659.66;5054067;28;20627;-65
2022/07/26 07:35:29;;;;;;;384.10;364.92;;;;;;;25.26;43.15;96660.00;5052843;28;20209;-65
2022/07/26 07:37:55;;;;;;;357.92;339.90;;;;;;;25.49;42.69;96663.19;5054319;28;20227;-65
2022/07/26 07:40:21;;;;;;;452.13;429.35;;;;;;;24.98;43.24;96656.19;5053944;28;20182;-65
2022/07/26 07:42:46;;;;;;;480.70;456.55;;;;;;;25.84;41.94;96653.84;5054044;28;20237;-65
2022/07/26 07:45:11;;;;;;;378.85;359.73;;;;;;;25.77;41.96;96653.56;5053731;28;20547;-65
2022/07/26 07:47:37;;;;;;;298.00;282.67;;;;;;;25.44;41.92;96652.66;5052495;28;20193;-65
2022/07/26 07:50:03;;;;;;;290.27;275.70;;;;;;;26.12;41.15;96650.63;5053855;28;20243;-66
2022/07/26 07:52:28;;;;;;;308.35;293.02;;;;;;;26.03;41.04;96645.31;5053929;28;20193;-65
2022/07/26 07:54:54;;;;;;;266.60;253.98;;;;;;;25.65;41.74;96646.22;5054230;28;20261;-64
2022/07/26 07:57:19;;;;;;;269.17;256.05;;;;;;;25.75;42.25;96655.00;5053766;28;20684;-64
2022/07/26 07:59:45;;;;;;;272.33;259.50;;;;;;;25.72;41.67;96650.28;5053804;28;20186;-65
2022/07/26 08:02:11;;;;;;;260.55;248.02;;;;;;;25.71;41.75;96649.50;5053790;28;20188;-65
2022/07/26 08:04:37;;;;;;;217.30;206.77;;;;;;;25.46;42.31;96653.91;5053145;28;20653;-65
2022/07/26 08:07:02;;;;;;;245.45;233.95;;;;;;;25.73;41.38;96644.59;5053756;28;20182;-64
2022/07/26 08:09:28;;;;;;;214.07;203.93;;;;;;;25.31;42.16;96642.94;5053781;28;20177;-65
2022/07/26 08:11:53;;;;;;;201.40;191.98;;;;;;;24.82;42.90;96637.94;5053952;28;20182;-65
2022/07/26 08:14:19;;;;;;;169.80;161.45;;;;;;;25.59;41.21;96639.47;5053528;28;20312;-65
2022/07/26 08:16:44;;;;;;;164.60;156.73;;;;;;;25.41;41.01;96643.34;5053962;28;20232;-65
2022/07/26 08:19:09;;;;;;;139.35;132.50;;;;;;;25.08;41.63;96642.41;5053381;28;20263;-65
2022/07/26 08:21:35;;;;;;;144.65;137.40;;;;;;;26.16;39.91;96648.84;5051901;28;20178;-65
2022/07/26 08:24:01;;;;;;;108.25;102.55;;;;;;;26.58;38.73;96641.50;5052954;28;20202;-64
2022/07/26 08:26:26;;;;;;;111.65;106.07;;;;;;;26.51;38.48;96642.03;5054127;28;20178;-64
2022/07/26 08:28:51;;;;;;;151.60;144.23;;;;;;;26.62;38.32;96645.09;5053954;28;20189;-64
2022/07/26 08:31:19;;;;;;;247.45;234.43;;;;;;;26.94;37.13;96649.66;5054230;28;20188;-65
2022/07/26 08:33:45;;;;;;;300.15;283.65;;;;;;;27.02;37.72;96650.69;5053780;28;20635;-66
2022/07/26 08:36:10;;;;;;;446.27;422.08;;;;;;;27.00;37.04;96651.00;5053261;28;20182;-65
2022/07/26 08:38:36;;;;;;;583.13;550.78;;;;;;;26.86;36.71;96647.84;5053384;28;20184;-65
2022/07/26 08:41:01;;;;;;;613.70;580.05;;;;;;;26.56;37.29;96649.91;5052984;28;20763;-66
2022/07/26 08:43:28;;;;;;;610.17;576.80;;;;;;;26.35;37.72;96651.84;5052863;28;20200;-63
2022/07/26 08:46:01;;;;;;;578.97;547.97;;;;;;;25.75;38.78;96652.31;5052920;28;20237;-64
2022/07/26 08:48:27;;;;;;;564.53;534.22;;;;;;;25.80;38.89;96654.84;5052795;28;20178;-64
2022/07/26 08:50:54;;;;;;;468.30;443.05;;;;;;;25.59;39.78;96644.06;5052917;28;20235;-65
2022/07/26 08:53:19;;;;;;;471.63;446.55;;;;;;;26.21;38.82;96654.00;5052878;28;20590;-64
2022/07/26 08:55:45;;;;;;;450.70;426.30;;;;;;;25.51;39.38;96653.72;5053027;28;20197;-65
2022/07/26 08:58:10;;;;;;;468.35;443.33;;;;;;;25.95;39.05;96657.72;5052632;28;20177;-65
2022/07/26 09:00:36;;;;;;;493.23;466.70;;;;;;;26.35;38.03;96662.63;5052735;28;20611;-65
2022/07/26 09:03:03;;;;;;;595.72;563.53;;;;;;;26.71;37.14;96661.91;5052609;28;20239;-65
2022/07/26 09:05:35;;;;;;;603.00;570.42;;;;;;;26.43;37.15;96664.41;5052775;28;20190;-65
2022/07/26 09:08:28;;;;;;;605.17;572.92;;;;;;;26.43;37.39;96656.34;5052789;28;20192;-65
2022/07/26 09:10:54;;;;;;;621.22;588.03;;;;;;;25.95;38.32;96665.75;5051410;28;20186;-66
2022/07/26 09:13:22;;;;;;;528.28;499.60;;;;;;;26.40;36.80;96662.41;5052520;28;20716;-65
2022/07/26 09:15:47;;;;;;;436.67;412.90;;;;;;;27.26;35.79;96659.53;5052751;28;20556;-65
2022/07/26 09:18:27;;;;;;;321.52;304.08;;;;;;;28.02;35.33;96669.56;5052561;28;20182;-65
2022/07/26 09:20:53;;;;;;;159.10;150.45;;;;;;;27.76;34.44;96660.28;5052631;28;20181;-65
2022/07/26 09:23:18;;;;;;;58.20;55.20;;;;;;;26.68;36.35;96666.06;5052333;28;20271;-64
2022/07/26 09:25:45;;;;;;;86.50;81.88;;;;;;;27.10;35.80;96661.31;5072311;28;20186;-65
2022/07/26 09:28:28;;;;;;;43.95;41.60;;;;;;;26.89;36.57;96655.25;5072513;28;20185;-65
2022/07/26 09:30:58;;;;;;;78.63;74.32;;;;;;;27.60;35.27;96663.69;5072871;28;20256;-64
2022/07/26 09:33:25;;;;;;;51.20;48.47;;;;;;;27.74;34.55;96662.53;5071321;28;20690;-64
2022/07/26 09:36:20;;;;;;;64.60;61.22;;;;;;;27.53;34.82;96660.00;5073677;28;20182;-66
2022/07/26 09:38:51;;;;;;;52.50;49.65;;;;;;;27.41;35.55;96674.22;5071667;28;20220;-65
2022/07/26 09:41:30;;;;;;;72.18;68.47;;;;;;;27.54;34.89;96670.41;5074949;28;20728;-65
2022/07/26 09:43:59;;;;;;;77.07;72.90;;;;;;;27.45;35.02;96663.56;5076272;28;20209;-65
2022/07/26 09:46:28;;;;;;;81.78;77.53;;;;;;;27.65;34.83;96674.22;5069461;28;20194;-66
2022/07/26 09:48:55;;;;;;;62.35;59.15;;;;;;;27.67;34.40;96665.81;5056367;28;20177;-65
2022/07/26 09:51:37;;;;;;;125.68;119.40;;;;;;;26.66;35.95;96667.50;5056264;28;20193;-64
2022/07/26 09:54:02;;;;;;;131.65;125.20;;;;;;;26.12;36.79;96674.78;5056016;28;20184;-65
2022/07/26 09:56:48;;;;;;;32.42;30.70;;;;;;;26.11;37.42;96679.38;5056077;28;20186;-65
2022/07/26 09:59:15;;;;;;;34.00;32.28;;;;;;;26.90;36.11;96675.66;5056228;28;20690;-65
2022/07/26 10:01:42;;;;;;;52.78;50.00;;;;;;;26.41;36.61;96678.22;5055998;28;20182;-65
2022/07/26 10:04:07;;;;;;;48.15;45.35;;;;;;;26.88;35.79;96673.28;5055576;28;20194;-65
2022/07/26 10:06:32;;;;;;;58.85;55.88;;;;;;;26.44;36.44;96682.91;5055736;28;20185;-65
2022/07/26 10:08:59;;;;;;;62.25;59.17;;;;;;;26.65;35.86;96676.69;5054391;28;20217;-65
2022/07/26 10:11:34;;;;;;;74.38;70.50;;;;;;;26.89;35.52;96688.31;5054281;28;20565;-65
2022/07/26 10:14:19;;;;;;;111.13;105.78;;;;;;;26.44;35.90;96690.19;5055614;28;20177;-65
2022/07/26 10:16:45;;;;;;;37.15;34.88;;;;;;;25.96;37.79;96691.53;5055542;28;20189;-66
2022/07/26 10:19:36;;;;;;;27.67;26.25;;;;;;;25.24;39.39;96687.16;5055729;28;20186;-65
2022/07/26 10:22:32;;;;;;;169.25;161.13;;;;;;;25.08;39.91;96686.13;5055334;28;20212;-65
2022/07/26 10:25:16;;;;;;;444.02;422.52;;;;;;;24.95;40.59;96689.03;5055249;28;20177;-65
2022/07/26 10:27:46;;;;;;;660.42;625.22;;;;;;;24.84;41.53;96689.38;5054388;28;20233;-65
2022/07/26 10:30:26;;;;;;;565.47;536.00;;;;;;;24.18;42.52;96696.09;5055652;28;20167;-65
2022/07/26 10:33:12;;;;;;;291.15;276.70;;;;;;;24.77;41.71;96689.06;5055446;28;20184;-65
2022/07/26 10:35:39;;;;;;;149.40;141.68;;;;;;;24.75;41.75;96685.91;5055161;28;20253;-66
2022/07/26 10:38:20;;;;;;;114.00;108.03;;;;;;;24.52;42.13;96692.56;5055264;28;20186;-66
2022/07/26 10:41:05;;;;;;;127.13;120.40;;;;;;;24.47;42.25;96692.75;5053743;28;20243;-66
2022/07/26 10:43:31;;;;;;;138.35;131.05;;;;;;;24.76;41.53;96684.78;5054918;28;20213;-66
2022/07/26 10:46:12;;;;;;;152.95;145.15;;;;;;;25.00;41.33;96688.88;5053466;28;20627;-66
2022/07/26 10:48:54;;;;;;;165.18;157.00;;;;;;;25.51;40.53;96682.47;5054788;28;20666;-66
2022/07/26 10:51:29;;;;;;;190.88;181.45;;;;;;;24.96;41.09;96696.78;5055240;28;20227;-66
2022/07/26 10:54:03;;;;;;;162.40;154.27;;;;;;;24.18;42.30;96688.06;5054972;28;20223;-66
2022/07/26 10:56:29;;;;;;;127.65;121.25;;;;;;;24.94;41.19;96688.25;5055076;28;20170;-66
2022/07/26 10:58:55;;;;;;;146.02;138.75;;;;;;;24.82;41.76;96683.53;5053521;28;20519;-66
2022/07/26 11:01:21;;;;;;;159.73;151.85;;;;;;;25.17;40.68;96686.13;5054727;28;20586;-66
2022/07/26 11:03:46;;;;;;;243.23;231.30;;;;;;;25.59;39.88;96695.84;5053571;28;20208;-66